createdAt,value
2018-08-07T00:00:04.882Z,1.70
2018-08-07T00:02:33.104Z,1.70
2018-08-07T00:05:01.415Z,2.00
2018-08-07T00:07:30.903Z,1.70
2018-08-07T00:09:59.515Z,1.80
2018-08-07T00:12:28.028Z,1.60
2018-08-07T00:14:56.627Z,1.72
2018-08-07T00:17:24.713Z,1.62
2018-08-07T00:19:52.916Z,1.90
2018-08-07T00:22:21.493Z,1.80
2018-08-07T00:24:50.019Z,1.70
2018-08-07T00:27:18.520Z,1.80
2018-08-07T00:29:46.907Z,1.70
2018-08-07T00:32:15.533Z,1.80
2018-08-07T00:34:44.349Z,1.62
2018-08-07T00:37:12.625Z,1.60
2018-08-07T00:39:40.629Z,1.80
2018-08-07T00:42:08.925Z,2.10
2018-08-07T00:44:37.410Z,1.60
2018-08-07T00:47:05.723Z,1.90
2018-08-07T00:49:34.092Z,1.80
2018-08-07T00:52:02.603Z,2.00
2018-08-07T00:54:30.905Z,1.90
2018-08-07T00:56:59.213Z,2.00
2018-08-07T00:59:27.414Z,1.90
2018-08-07T01:01:56.022Z,1.90
2018-08-07T01:04:24.417Z,1.60
2018-08-07T01:06:52.794Z,1.90
2018-08-07T01:09:21.047Z,1.90
2018-08-07T01:11:49.530Z,1.90
2018-08-07T01:14:17.873Z,1.90
2018-08-07T01:16:46.298Z,1.90
2018-08-07T01:19:14.713Z,1.82
2018-08-07T01:21:42.798Z,1.40
2018-08-07T01:24:11.215Z,1.70
2018-08-07T01:26:39.716Z,1.40
2018-08-07T01:29:08.012Z,1.80
2018-08-07T01:31:36.590Z,1.80
2018-08-07T01:34:04.790Z,1.80
2018-08-07T01:36:33.522Z,1.60
2018-08-07T01:39:02.121Z,2.00
2018-08-07T01:41:30.619Z,1.90
2018-08-07T01:43:59.240Z,1.82
2018-08-07T01:46:27.626Z,1.75
2018-08-07T01:48:56.116Z,2.02
2018-08-07T01:51:24.435Z,1.70
2018-08-07T01:53:53.011Z,1.70
2018-08-07T01:56:21.523Z,1.80
2018-08-07T01:58:50.129Z,1.50
2018-08-07T02:01:18.307Z,1.45
2018-08-07T02:03:46.600Z,1.50
2018-08-07T02:06:15.126Z,1.50
2018-08-07T02:08:43.217Z,1.72
2018-08-07T02:11:11.419Z,1.60
2018-08-07T02:13:39.918Z,1.60
2018-08-07T02:16:08.118Z,1.70
2018-08-07T02:18:36.597Z,1.65
2018-08-07T02:21:05.222Z,1.50
2018-08-07T02:23:35.872Z,1.60
2018-08-07T02:26:04.454Z,1.60
2018-08-07T02:28:33.365Z,1.50
2018-08-07T02:31:01.874Z,1.80
2018-08-07T02:33:30.394Z,1.50
2018-08-07T02:35:58.990Z,1.40
2018-08-07T02:38:27.189Z,1.50
2018-08-07T02:40:56.587Z,1.70
2018-08-07T02:43:25.299Z,1.52
2018-08-07T02:45:53.813Z,1.87
2018-08-07T02:48:22.527Z,1.70
2018-08-07T02:50:51.030Z,1.60
2018-08-07T02:53:19.613Z,1.80
2018-08-07T02:55:47.996Z,1.70
2018-08-07T02:58:16.202Z,1.98
2018-08-07T03:00:44.756Z,1.80
2018-08-07T03:03:13.139Z,1.80
2018-08-07T03:05:42.041Z,1.97
2018-08-07T03:08:10.639Z,1.70
2018-08-07T03:10:39.141Z,1.70
2018-08-07T03:13:07.635Z,1.72
2018-08-07T03:15:36.032Z,1.40
2018-08-07T03:18:04.653Z,1.57
2018-08-07T03:20:33.121Z,1.57
2018-08-07T03:23:03.001Z,1.50
2018-08-07T03:25:31.384Z,1.80
2018-08-07T03:27:59.789Z,1.60
2018-08-07T03:30:27.838Z,1.40
2018-08-07T03:32:56.279Z,1.60
2018-08-07T03:35:24.752Z,1.50
2018-08-07T03:37:53.768Z,1.80
2018-08-07T03:40:22.273Z,1.72
2018-08-07T03:42:50.491Z,1.80
2018-08-07T03:45:19.555Z,1.60
2018-08-07T03:47:48.596Z,1.60
2018-08-07T03:50:17.125Z,1.40
2018-08-07T03:52:46.302Z,1.77
2018-08-07T03:55:16.329Z,1.80
2018-08-07T03:57:45.350Z,1.70
2018-08-07T04:00:18.580Z,1.70
2018-08-07T04:02:46.970Z,1.75
2018-08-07T04:05:15.690Z,1.72
2018-08-07T04:07:44.101Z,1.75
2018-08-07T04:10:14.010Z,1.50
2018-08-07T04:12:42.231Z,1.72
2018-08-07T04:15:12.242Z,1.77
2018-08-07T04:17:40.927Z,1.90
2018-08-07T04:20:11.701Z,1.60
2018-08-07T04:22:40.231Z,1.87
2018-08-07T04:25:08.415Z,1.60
2018-08-07T04:27:36.618Z,1.60
2018-08-07T04:30:07.639Z,1.70
2018-08-07T04:32:36.592Z,1.95
2018-08-07T04:35:05.397Z,1.90
2018-08-07T04:37:34.084Z,1.70
2018-08-07T04:40:02.408Z,1.90
2018-08-07T04:42:34.691Z,1.60
2018-08-07T04:45:03.196Z,1.72
2018-08-07T04:47:31.491Z,1.70
2018-08-07T04:50:00.014Z,1.75
2018-08-07T04:52:28.404Z,2.47
2018-08-07T04:54:56.963Z,1.80
2018-08-07T04:57:25.781Z,2.00
2018-08-07T04:59:53.893Z,2.30
2018-08-07T05:02:22.444Z,1.70
2018-08-07T05:04:50.974Z,1.60
2018-08-07T05:07:19.408Z,1.67
2018-08-07T05:09:47.980Z,2.10
2018-08-07T05:12:17.320Z,1.70
2018-08-07T05:14:45.629Z,2.40
2018-08-07T05:17:14.429Z,1.80
2018-08-07T05:19:42.497Z,1.70
2018-08-07T05:22:12.143Z,2.30
2018-08-07T05:24:40.637Z,2.65
2018-08-07T05:27:09.767Z,2.10
2018-08-07T05:29:38.140Z,2.10
2018-08-07T05:32:07.185Z,1.80
2018-08-07T05:34:35.549Z,1.80
2018-08-07T05:37:04.093Z,1.45
2018-08-07T05:39:32.487Z,1.60
2018-08-07T05:42:00.964Z,1.60
2018-08-07T05:44:29.461Z,1.40
2018-08-07T05:46:57.838Z,1.70
2018-08-07T05:49:25.982Z,1.90
2018-08-07T05:51:54.056Z,1.67
2018-08-07T05:54:22.158Z,1.57
2018-08-07T05:56:50.671Z,1.55
2018-08-07T05:59:20.384Z,1.40
2018-08-07T06:01:48.591Z,1.43
2018-08-07T06:04:16.967Z,1.40
2018-08-07T06:06:45.596Z,1.30
2018-08-07T06:09:14.098Z,1.53
2018-08-07T06:11:42.432Z,1.47
2018-08-07T06:14:10.911Z,1.60
2018-08-07T06:16:39.579Z,1.80
2018-08-07T06:19:08.157Z,1.40
2018-08-07T06:21:36.620Z,1.40
2018-08-07T06:24:05.024Z,1.30
2018-08-07T06:26:33.402Z,1.90
2018-08-07T06:29:01.609Z,1.13
2018-08-07T06:31:30.263Z,1.73
2018-08-07T06:33:58.969Z,1.40
2018-08-07T06:36:27.227Z,1.47
2018-08-07T06:38:55.691Z,1.85
2018-08-07T06:41:24.233Z,2.60
2018-08-07T06:43:53.127Z,1.70
2018-08-07T06:46:21.626Z,1.60
2018-08-07T06:48:50.249Z,2.20
2018-08-07T06:51:18.836Z,2.50
2018-08-07T06:53:47.186Z,1.80
2018-08-07T06:56:15.514Z,1.90
2018-08-07T06:58:43.815Z,1.50
2018-08-07T07:01:12.249Z,1.40
2018-08-07T07:03:40.631Z,1.37
2018-08-07T07:06:09.237Z,1.70
2018-08-07T07:08:37.732Z,1.67
2018-08-07T07:11:06.198Z,1.77
2018-08-07T07:13:34.859Z,1.52
2018-08-07T07:16:03.452Z,2.00
2018-08-07T07:18:31.828Z,1.75
2018-08-07T07:21:00.448Z,1.80
2018-08-07T07:23:28.958Z,1.70
2018-08-07T07:25:57.553Z,1.70
2018-08-07T07:28:25.869Z,1.80
2018-08-07T07:30:54.477Z,1.50
2018-08-07T07:33:23.780Z,1.70
2018-08-07T07:35:52.162Z,1.90
2018-08-07T07:38:20.476Z,2.00
2018-08-07T07:40:48.960Z,2.05
2018-08-07T07:43:17.384Z,2.30
2018-08-07T07:45:45.983Z,2.10
2018-08-07T07:48:14.171Z,1.90
2018-08-07T07:50:42.395Z,2.00
2018-08-07T07:53:11.191Z,2.00
2018-08-07T07:55:40.478Z,1.90
2018-08-07T07:58:09.152Z,2.00
2018-08-07T08:00:37.735Z,2.30
2018-08-07T08:03:06.027Z,2.23
2018-08-07T08:05:34.545Z,2.30
2018-08-07T08:08:03.098Z,2.50
2018-08-07T08:10:31.567Z,2.12
2018-08-07T08:13:00.038Z,2.67
2018-08-07T08:15:28.512Z,2.50
2018-08-07T08:17:57.136Z,2.60
2018-08-07T08:20:26.009Z,2.60
2018-08-07T08:22:55.240Z,2.70
2018-08-07T08:25:23.434Z,2.30
2018-08-07T08:27:51.649Z,2.50
2018-08-07T08:30:20.026Z,2.80
2018-08-07T08:32:48.550Z,2.62
2018-08-07T08:35:18.103Z,2.37
2018-08-07T08:37:46.638Z,2.90
2018-08-07T08:40:16.122Z,3.08
2018-08-07T08:42:44.471Z,2.90
2018-08-07T08:45:16.709Z,2.77
2018-08-07T08:47:46.043Z,2.95
2018-08-07T08:50:15.646Z,2.90
2018-08-07T08:52:44.190Z,2.90
2018-08-07T08:55:12.430Z,3.00
2018-08-07T08:57:41.625Z,2.90
2018-08-07T09:00:17.562Z,2.93
2018-08-07T09:02:46.539Z,2.43
2018-08-07T09:05:14.912Z,3.10
2018-08-07T09:07:43.424Z,2.40
2018-08-07T09:10:16.031Z,3.03
2018-08-07T09:12:44.608Z,3.00
2018-08-07T09:15:13.082Z,3.43
2018-08-07T09:17:41.728Z,2.92
2018-08-07T09:20:15.757Z,3.07
2018-08-07T09:22:44.361Z,2.93
2018-08-07T09:25:13.078Z,2.90
2018-08-07T09:27:42.147Z,3.10
2018-08-07T09:30:17.840Z,3.20
2018-08-07T09:32:47.148Z,3.10
2018-08-07T09:35:16.371Z,2.70
2018-08-07T09:37:44.679Z,2.77
2018-08-07T09:40:14.316Z,3.10
2018-08-07T09:42:43.282Z,3.40
2018-08-07T09:45:14.788Z,2.80
2018-08-07T09:47:44.224Z,3.93
2018-08-07T09:50:13.455Z,2.90
2018-08-07T09:52:41.803Z,3.30
2018-08-07T09:55:10.509Z,3.20
2018-08-07T09:57:39.509Z,3.33
2018-08-07T10:00:14.136Z,3.10
2018-08-07T10:02:44.383Z,3.00
2018-08-07T10:05:12.951Z,2.90
2018-08-07T10:07:41.431Z,3.30
2018-08-07T10:10:09.588Z,3.20
2018-08-07T10:12:38.653Z,3.03
2018-08-07T10:15:07.138Z,2.70
2018-08-07T10:17:35.545Z,3.17
2018-08-07T10:20:04.047Z,3.03
2018-08-07T10:22:32.440Z,3.57
2018-08-07T10:25:00.921Z,3.20
2018-08-07T10:27:30.663Z,3.20
2018-08-07T10:29:58.860Z,2.90
2018-08-07T10:32:27.478Z,3.03
2018-08-07T10:34:56.076Z,3.93
2018-08-07T10:37:24.892Z,2.80
2018-08-07T10:39:53.270Z,3.17
2018-08-07T10:42:21.872Z,3.10
2018-08-07T10:44:51.397Z,2.90
2018-08-07T10:47:19.593Z,3.47
2018-08-07T10:49:47.801Z,3.17
2018-08-07T10:52:16.248Z,3.43
2018-08-07T10:54:45.678Z,2.80
2018-08-07T10:57:14.217Z,2.87
2018-08-07T10:59:42.182Z,3.13
2018-08-07T11:02:10.929Z,3.10
2018-08-07T11:04:39.329Z,2.60
2018-08-07T11:07:07.895Z,2.60
2018-08-07T11:09:36.226Z,2.30
2018-08-07T11:12:04.419Z,2.87
2018-08-07T11:14:32.432Z,2.33
2018-08-07T11:17:00.621Z,2.70
2018-08-07T11:19:29.444Z,2.73
2018-08-07T11:21:57.896Z,2.70
2018-08-07T11:24:26.571Z,2.90
2018-08-07T11:26:55.019Z,2.70
2018-08-07T11:29:22.987Z,2.57
2018-08-07T11:31:51.521Z,2.73
2018-08-07T11:34:20.604Z,2.70
2018-08-07T11:36:49.136Z,2.50
2018-08-07T11:39:17.929Z,3.00
2018-08-07T11:41:46.395Z,2.83
2018-08-07T11:44:15.013Z,2.90
2018-08-07T11:46:43.760Z,3.50
2018-08-07T11:49:12.172Z,2.67
2018-08-07T11:51:40.184Z,2.67
2018-08-07T11:54:23.232Z,2.70
2018-08-07T11:56:51.857Z,2.73
2018-08-07T11:59:20.893Z,2.13
2018-08-07T12:01:49.592Z,2.60
2018-08-07T12:04:17.826Z,2.40
2018-08-07T12:06:47.039Z,2.90
2018-08-07T12:09:15.682Z,2.47
2018-08-07T12:11:44.237Z,2.10
2018-08-07T12:14:12.826Z,2.47
2018-08-07T12:16:41.244Z,2.63
2018-08-07T12:19:09.828Z,3.33
2018-08-07T12:21:38.098Z,2.60
2018-08-07T12:24:07.553Z,2.37
2018-08-07T12:26:36.057Z,2.30
2018-08-07T12:29:04.535Z,2.50
2018-08-07T12:31:32.928Z,2.90
2018-08-07T12:34:01.250Z,2.80
2018-08-07T12:36:29.631Z,2.40
2018-08-07T12:38:57.922Z,2.60
2018-08-07T12:41:26.440Z,2.37
2018-08-07T12:43:54.431Z,3.00
2018-08-07T12:46:22.681Z,2.90
2018-08-07T12:48:51.021Z,2.40
2018-08-07T12:51:19.509Z,2.47
2018-08-07T12:53:48.478Z,2.73
2018-08-07T12:56:17.045Z,3.10
2018-08-07T12:58:45.566Z,2.77
2018-08-07T13:01:14.275Z,2.60
2018-08-07T13:03:42.450Z,2.83
2018-08-07T13:06:10.690Z,2.60
2018-08-07T13:08:38.990Z,3.27
2018-08-07T13:11:07.959Z,2.80
2018-08-07T13:13:36.168Z,3.17
2018-08-07T13:16:04.743Z,2.50
2018-08-07T13:18:39.026Z,3.00
2018-08-07T13:21:07.798Z,2.77
2018-08-07T13:23:36.294Z,2.80
2018-08-07T13:26:04.962Z,2.70
2018-08-07T13:28:33.592Z,3.20
2018-08-07T13:31:02.431Z,3.13
2018-08-07T13:33:31.962Z,3.00
2018-08-07T13:36:01.308Z,2.97
2018-08-07T13:38:30.689Z,3.10
2018-08-07T13:41:00.694Z,3.23
2018-08-07T13:43:29.465Z,3.13
2018-08-07T13:45:58.798Z,2.70
2018-08-07T13:48:29.011Z,3.10
2018-08-07T13:50:57.392Z,3.33
2018-08-07T13:53:26.111Z,3.07
2018-08-07T13:55:55.093Z,3.30
2018-08-07T13:58:23.694Z,3.37
2018-08-07T14:00:52.180Z,3.93
2018-08-07T14:03:20.908Z,3.40
2018-08-07T14:05:49.347Z,3.20
2018-08-07T14:08:18.031Z,3.53
2018-08-07T14:10:46.229Z,3.27
2018-08-07T14:13:14.916Z,3.70
2018-08-07T14:15:43.321Z,3.33
2018-08-07T14:18:11.774Z,3.47
2018-08-07T14:20:40.210Z,3.20
2018-08-07T14:23:09.509Z,3.30
2018-08-07T14:25:38.222Z,3.27
2018-08-07T14:28:06.962Z,3.63
2018-08-07T14:30:34.946Z,3.20
2018-08-07T14:33:03.456Z,3.53
2018-08-07T14:35:31.955Z,3.80
2018-08-07T14:38:00.477Z,3.50
2018-08-07T14:40:28.863Z,3.60
2018-08-07T14:42:57.337Z,4.23
2018-08-07T14:45:27.911Z,3.30
2018-08-07T14:47:56.996Z,3.50
2018-08-07T14:50:26.890Z,3.77
2018-08-07T14:52:55.356Z,4.73
2018-08-07T14:55:23.665Z,3.37
2018-08-07T14:57:52.466Z,3.60
2018-08-07T15:00:24.575Z,3.87
2018-08-07T15:02:52.925Z,4.43
2018-08-07T15:05:21.556Z,3.40
2018-08-07T15:07:50.033Z,3.77
2018-08-07T15:10:20.218Z,3.40
2018-08-07T15:12:49.032Z,3.40
2018-08-07T15:15:18.640Z,3.90
2018-08-07T15:17:47.126Z,3.75
2018-08-07T15:20:16.049Z,3.53
2018-08-07T15:22:45.394Z,4.53
2018-08-07T15:25:14.795Z,3.77
2018-08-07T15:27:43.452Z,4.00
2018-08-07T15:30:13.709Z,3.90
2018-08-07T15:32:42.339Z,3.50
2018-08-07T15:35:10.521Z,3.27
2018-08-07T15:37:39.045Z,3.33
2018-08-07T15:40:08.290Z,3.70
2018-08-07T15:42:36.874Z,3.60
2018-08-07T15:45:06.124Z,3.90
2018-08-07T15:47:34.456Z,4.03
2018-08-07T15:50:02.984Z,3.57
2018-08-07T15:52:31.372Z,4.03
2018-08-07T15:55:00.093Z,3.43
2018-08-07T15:57:28.353Z,3.07
2018-08-07T15:59:56.679Z,3.70
2018-08-07T16:02:25.086Z,3.40
2018-08-07T16:04:53.663Z,3.27
2018-08-07T16:07:22.276Z,3.70
2018-08-07T16:09:50.372Z,4.00
2018-08-07T16:12:18.675Z,3.83
2018-08-07T16:14:47.167Z,3.27
2018-08-07T16:17:15.364Z,3.40
2018-08-07T16:19:44.176Z,3.47
2018-08-07T16:22:12.246Z,3.47
2018-08-07T16:24:40.465Z,3.30
2018-08-07T16:27:08.606Z,3.10
2018-08-07T16:29:37.445Z,3.60
2018-08-07T16:32:05.767Z,3.57
2018-08-07T16:34:33.942Z,3.13
2018-08-07T16:37:02.232Z,2.93
2018-08-07T16:39:31.984Z,3.13
2018-08-07T16:42:00.371Z,3.23
2018-08-07T16:44:29.001Z,3.20
2018-08-07T16:46:57.513Z,3.93
2018-08-07T16:49:26.110Z,3.45
2018-08-07T16:51:54.698Z,3.47
2018-08-07T16:54:22.890Z,3.47
2018-08-07T16:56:50.902Z,3.37
2018-08-07T16:59:19.376Z,3.17
2018-08-07T17:01:48.005Z,3.80
2018-08-07T17:04:16.841Z,3.83
2018-08-07T17:06:45.423Z,3.80
2018-08-07T17:09:14.004Z,3.93
2018-08-07T17:11:42.728Z,4.53
2018-08-07T17:14:11.234Z,3.80
2018-08-07T17:16:39.834Z,4.10
2018-08-07T17:19:08.300Z,4.43
2018-08-07T17:21:36.634Z,3.60
2018-08-07T17:24:05.009Z,3.30
2018-08-07T17:26:33.501Z,3.10
2018-08-07T17:29:02.008Z,3.83
2018-08-07T17:31:30.538Z,4.03
2018-08-07T17:33:59.040Z,3.60
2018-08-07T17:36:27.234Z,3.23
2018-08-07T17:38:55.830Z,3.60
2018-08-07T17:41:24.332Z,3.43
2018-08-07T17:43:52.534Z,3.47
2018-08-07T17:46:21.240Z,3.30
2018-08-07T17:48:49.624Z,3.60
2018-08-07T17:51:18.006Z,3.30
2018-08-07T17:53:46.547Z,3.30
2018-08-07T17:56:14.965Z,3.50
2018-08-07T17:58:43.314Z,3.58
2018-08-07T18:01:11.635Z,3.40
2018-08-07T18:03:40.151Z,3.60
2018-08-07T18:06:08.930Z,3.80
2018-08-07T18:08:37.126Z,4.00
2018-08-07T18:11:05.556Z,3.90
2018-08-07T18:13:34.150Z,3.60
2018-08-07T18:16:02.508Z,3.42
2018-08-07T18:18:30.944Z,3.50
2018-08-07T18:20:59.452Z,3.80
2018-08-07T18:23:28.075Z,4.20
2018-08-07T18:26:00.449Z,3.83
2018-08-07T18:28:30.071Z,3.90
2018-08-07T18:30:58.791Z,3.60
2018-08-07T18:33:27.188Z,3.70
2018-08-07T18:35:57.950Z,4.00
2018-08-07T18:38:27.190Z,3.70
2018-08-07T18:41:01.022Z,4.17
2018-08-07T18:43:36.044Z,3.67
2018-08-07T18:46:04.959Z,4.37
2018-08-07T18:48:33.539Z,4.10
2018-08-07T18:51:05.277Z,4.30
2018-08-07T18:53:33.707Z,4.37
2018-08-07T18:56:02.361Z,4.17
2018-08-07T18:58:30.921Z,4.23
2018-08-07T19:00:59.520Z,4.60
2018-08-07T19:03:28.744Z,4.40
2018-08-07T19:05:58.262Z,4.30
2018-08-07T19:08:26.778Z,4.40
2018-08-07T19:10:54.951Z,3.90
2018-08-07T19:13:27.244Z,4.37
2018-08-07T19:15:55.859Z,3.83
2018-08-07T19:18:24.355Z,4.67
2018-08-07T19:20:52.646Z,4.37
2018-08-07T19:23:22.285Z,4.67
2018-08-07T19:25:51.262Z,4.23
2018-08-07T19:28:19.794Z,4.60
2018-08-07T19:30:48.301Z,4.17
2018-08-07T19:33:16.814Z,4.57
2018-08-07T19:35:45.203Z,4.20
2018-08-07T19:38:15.861Z,4.10
2018-08-07T19:40:44.353Z,4.43
2018-08-07T19:43:12.855Z,4.60
2018-08-07T19:45:41.422Z,4.77
2018-08-07T19:48:10.056Z,4.83
2018-08-07T19:50:38.254Z,4.43
2018-08-07T19:53:07.186Z,4.50
2018-08-07T19:55:35.823Z,4.97
2018-08-07T19:58:04.229Z,5.07
2018-08-07T20:00:32.875Z,4.87
2018-08-07T20:03:01.477Z,4.85
2018-08-07T20:05:29.924Z,5.08
2018-08-07T20:07:58.453Z,5.40
2018-08-07T20:10:26.985Z,4.70
2018-08-07T20:12:55.476Z,5.20
2018-08-07T20:15:26.641Z,5.30
2018-08-07T20:17:55.523Z,5.33
2018-08-07T20:20:25.328Z,5.37
2018-08-07T20:22:55.170Z,4.80
2018-08-07T20:25:24.122Z,5.60
2018-08-07T20:27:55.682Z,4.90
2018-08-07T20:30:24.588Z,5.25
2018-08-07T20:32:54.598Z,5.20
2018-08-07T20:35:23.761Z,5.20
2018-08-07T20:37:53.319Z,5.05
2018-08-07T20:40:24.090Z,4.80
2018-08-07T20:42:54.129Z,5.20
2018-08-07T20:45:23.734Z,4.85
2018-08-07T20:47:53.816Z,4.80
2018-08-07T20:50:25.768Z,5.30
2018-08-07T20:52:55.999Z,5.00
2018-08-07T20:55:27.201Z,5.20
2018-08-07T20:57:56.237Z,4.60
2018-08-07T21:00:26.320Z,4.97
2018-08-07T21:02:57.254Z,4.83
2018-08-07T21:05:25.969Z,4.77
2018-08-07T21:07:54.570Z,5.17
2018-08-07T21:10:25.013Z,5.20
2018-08-07T21:12:54.634Z,5.50
2018-08-07T21:15:26.281Z,5.28
2018-08-07T21:17:55.447Z,4.97
2018-08-07T21:20:24.617Z,5.42
2018-08-07T21:22:52.923Z,4.97
2018-08-07T21:25:24.551Z,4.97
2018-08-07T21:27:56.797Z,4.80
2018-08-07T21:30:27.185Z,5.10
2018-08-07T21:32:56.971Z,4.70
2018-08-07T21:35:25.675Z,5.10
2018-08-07T21:37:54.282Z,5.37
2018-08-07T21:40:24.281Z,4.87
2018-08-07T21:42:53.915Z,4.80
2018-08-07T21:45:22.523Z,5.30
2018-08-07T21:47:53.406Z,5.83
2018-08-07T21:50:23.357Z,5.30
2018-08-07T21:52:51.934Z,4.90
2018-08-07T21:55:20.709Z,5.10
2018-08-07T21:57:49.408Z,5.58
2018-08-07T22:00:18.144Z,5.03
2018-08-07T22:02:47.729Z,5.20
2018-08-07T22:05:16.349Z,5.10
2018-08-07T22:07:45.225Z,5.60
2018-08-07T22:10:18.287Z,5.78
2018-08-07T22:12:47.207Z,5.58
2018-08-07T22:15:17.074Z,5.20
2018-08-07T22:17:45.766Z,5.65
2018-08-07T22:20:14.135Z,5.40
2018-08-07T22:22:42.740Z,5.50
2018-08-07T22:25:17.466Z,5.43
2018-08-07T22:27:45.977Z,5.80
2018-08-07T22:30:16.592Z,5.70
2018-08-07T22:32:45.248Z,5.30
2018-08-07T22:35:14.046Z,5.20
2018-08-07T22:37:42.348Z,5.30
2018-08-07T22:40:11.684Z,5.40
2018-08-07T22:42:41.182Z,5.28
2018-08-07T22:45:11.523Z,5.80
2018-08-07T22:47:40.293Z,5.30
2018-08-07T22:50:09.708Z,5.50
2018-08-07T22:52:38.266Z,5.80
2018-08-07T22:55:08.487Z,5.80
2018-08-07T22:57:36.693Z,5.25
2018-08-07T23:00:07.746Z,4.90
2018-08-07T23:02:36.300Z,5.60
2018-08-07T23:05:04.785Z,5.30
2018-08-07T23:07:33.342Z,5.45
2018-08-07T23:10:01.767Z,5.70
2018-08-07T23:12:32.497Z,5.30
2018-08-07T23:15:00.815Z,5.60
2018-08-07T23:17:29.308Z,5.72
2018-08-07T23:19:57.727Z,5.35
2018-08-07T23:22:26.432Z,5.33
2018-08-07T23:24:54.932Z,5.45
2018-08-07T23:30:06.191Z,5.97
2018-08-07T23:32:34.645Z,5.50
2018-08-07T23:35:03.260Z,5.47
2018-08-07T23:37:31.869Z,5.65
2018-08-07T23:40:00.360Z,5.72
2018-08-07T23:42:28.874Z,5.72
2018-08-07T23:44:57.150Z,5.60
2018-08-07T23:47:25.456Z,5.60
2018-08-07T23:49:54.063Z,5.67
2018-08-07T23:52:22.613Z,5.80
2018-08-07T23:54:51.102Z,5.28
2018-08-07T23:57:19.457Z,6.10
2018-08-07T23:59:47.963Z,5.80
